METAR Data
IDs: Format: Raw Decoded Include TAF

Data at: 0101 UTC 06 Dec 2019

KENV 060056Z AUTO 00000KT 10SM OVC039 00/M01 A3026 RMK AO2 SLP274 P0001 T00001011 FZRANO
KENV 060024Z AUTO 24003KT 10SM FEW002 OVC039 M01/M01 A3025 RMK AO2 FZRANO
KENV 060008Z AUTO 25003KT 10SM BKN002 OVC039 M01/M01 A3024 RMK AO2 FZRANO
KENV 052356Z AUTO 27003KT 2 1/2SM BR OVC002 M01/M01 A3024 RMK AO2 VIS 3/4V5 SLP268 P0002 60015 T10061011 10044 21006 51016 FZRANO
KENV 052351Z AUTO 27004KT 1SM BR OVC002 M01/M01 A3024 RMK AO2 VIS 1/2V5 P0002 FZRANO
KENV 052344Z AUTO 25004KT 1/2SM FZFG OVC002 M01/M01 A3023 RMK AO2 P0002 FZRANO
KENV 052332Z AUTO 25003KT 3/4SM BR OVC002 00/M01 A3023 RMK AO2 P0001 FZRANO
KENV 052256Z AUTO 23004KT 1/4SM FG OVC002 01/M01 A3023 RMK AO2 SLP264 P0004 T00061011 FZRANO
KENV 052239Z AUTO 24003KT 1/4SM FG OVC002 01/M01 A3022 RMK AO2 P0003 FZRANO
KENV 052156Z AUTO 26003KT 1/2SM HZ OVC002 02/M01 A3020 RMK AO2 SLP251 P0009 T00221006 FZRANO
KENV 052148Z AUTO 00000KT 1/4SM HZ OVC002 02/M01 A3020 RMK AO2 P0008 FZRANO
KENV 052139Z AUTO 00000KT 3/4SM HZ OVC002 03/M01 A3019 RMK AO2 VIS 1/2V3 P0006
KENV 052134Z AUTO 23003KT 1 3/4SM HZ OVC002 03/00 A3019 RMK AO2 VIS 3/4V5 P0006
KENV 052120Z AUTO 00000KT 3SM BR OVC002 03/02 A3019 RMK AO2 P0004
KENV 052112Z AUTO 00000KT 1 3/4SM BR OVC002 02/01 A3018 RMK AO2 P0003 FZRANO
KENV 052056Z AUTO 00000KT 3SM BR OVC002 04/02 A3018 RMK AO2 SLP242 T00390017 51007
KENV 052048Z AUTO 00000KT 1 1/4SM HZ OVC002 03/00 A3018 RMK AO2
KENV 052031Z AUTO 00000KT 3/4SM HZ OVC002 03/00 A3018 RMK AO2
KENV 052025Z AUTO 00000KT 1 3/4SM BR OVC002 03/02 A3018 RMK AO2 VIS 3/4V4
KENV 051956Z AUTO 04004KT 7SM OVC002 03/01 A3017 RMK AO2 SLP241 T00280011
KENV 051917Z AUTO 05003KT 3SM BR OVC002 02/01 A3018 RMK AO2 FZRANO
KENV 051900Z AUTO 05003KT 2SM BR OVC002 02/01 A3018 RMK AO2 VIS 1 1/2V3 FZRANO
KENV 051857Z AUTO 05003KT 1 1/4SM BR 02/01 A3018 RMK AO2 VIS 3/4V3 FZRANO
KENV 051853Z AUTO 06003KT 3/4SM BR 02/01 A3017 RMK AO2 SLP241 T00220006 FZRANO
KENV 051852Z AUTO 07003KT 3/4SM BR 02/01 A3017 RMK AO2 FZRANO
KENV 051828Z AUTO 09004KT 1/4SM FG 02/01 A3017 RMK AO2 FZRANO $
KENV 051825Z AUTO 09004KT 1/2SM FG OVC003 02/00 A3017 RMK AO2 FZRANO
KENV 051822Z AUTO 10004KT 3/4SM BR OVC001 01/00 A3017 RMK AO2 FZRANO
KENV 051815Z AUTO 07003KT 1 1/4SM BR OVC001 01/00 A3017 RMK AO2 FZRANO
KENV 051813Z AUTO 06004KT 3/4SM BR OVC001 01/00 A3017 RMK AO2 FZRANO
KENV 051756Z AUTO 05003KT 1/4SM FG OVC001 01/M01 A3016 RMK AO2 SLP238 60001 T00111006 10017 21011 51031 FZRANO
KENV 051656Z AUTO 07003KT 1/4SM FG OVC001 01/00 A3013 RMK AO2 SLP227 P0001 T00110000 FZRANO
KENV 051556Z AUTO 00000KT M1/4SM FZFG OVC001 M01/M02 A3009 RMK AO2 SLP215 T10061017 FZRANO
KENV 051456Z AUTO 00000KT M1/4SM FZFG OVC001 M01/M02 A3005 RMK AO2 SLP204 60000 T10111022 53018 FZRANO
KENV 051444Z AUTO 00000KT 1/4SM FZFG OVC003 M01/M02 A3004 RMK AO2 FZRANO
KENV 051418Z AUTO 00000KT 1/2SM FZFG OVC003 M01/M02 A3004 RMK AO2 FZRANO
KENV 051356Z AUTO 00000KT 3/4SM BR OVC003 M01/M02 A3002 RMK AO2 SLP192 T10111022 FZRANO
KENV 051350Z AUTO 21003KT 3/4SM BR OVC003 M01/M02 A3002 RMK AO2 FZRANO
KENV 051256Z AUTO 00000KT 1/2SM FZFG OVC003 M01/M02 A2999 RMK AO2 UPE07 SLP181 P0000 T10111022 FZRANO
KENV 051249Z AUTO 00000KT 1/2SM FZFG OVC003 M01/M02 A2999 RMK AO2 UPE07 P0000 FZRANO
KENV 051243Z AUTO 00000KT 1SM BR OVC003 M01/M02 A2999 RMK AO2 UPE07 P0000 FZRANO
KENV 051237Z AUTO 00000KT 2 1/2SM BR BKN003 OVC055 M01/M02 A2999 RMK AO2 VIS 3/4V5 UPE07 P0000 FZRANO
KENV 051225Z AUTO 00000KT 4SM BR BKN005 BKN035 OVC055 M01/M02 A2998 RMK AO2 UPE07 CIG 003V009 P0000 FZRANO
KENV 051156Z AUTO 00000KT 5SM UP BR OVC037 M01/M02 A2997 RMK AO2 SLP172 P0000 60000 70003 T10061017 10000 21011 51015 FZRANO
KENV 051056Z AUTO 00000KT 4SM UP BR FEW014 BKN033 OVC047 M01/M02 A2995 RMK AO2 UPB43SNE43 SLP166 P0000 T10061017 FZRANO
KENV 051027Z AUTO 00000KT 2SM -SN BR BKN016 OVC023 M01/M02 A2995 RMK AO2 P0000 FZRANO
KENV 051009Z AUTO 00000KT 1 3/4SM -SN BR SCT006 BKN010 OVC014 M01/M02 A2995 RMK AO2 P0000 FZRANO
KENV 050956Z AUTO 00000KT 1 3/4SM -SN BR BKN006 OVC010 M01/M01 A2995 RMK AO2 UPB08E21SNE08B21 CIG 003V007 SLP163 P0000 T10061011 FZRANO
KENV 050934Z AUTO 00000KT 1 3/4SM -SN BR OVC008 M01/M02 A2994 RMK AO2 UPB08E21SNE08B21 CIG 003V015 P0000 FZRANO
KENV 050856Z AUTO 00000KT 2SM -SN BR OVC008 M01/M02 A2992 RMK AO2 CIG 005V012 SLP153 P0000 60000 T10061017 53005 FZRANO
KENV 050829Z AUTO 00000KT 1 3/4SM -SN BR BKN008 OVC013 M01/M02 A2992 RMK AO2 CIG 005V011 P0000 FZRANO
KENV 050820Z AUTO 00000KT 1 1/2SM -SN BR FEW006 OVC015 M01/M01 A2992 RMK AO2 P0000 FZRANO
KENV 050756Z AUTO 00000KT 1 1/2SM -SN BR OVC006 M01/M01 A2991 RMK AO2 CIG 004V009 SLP150 P0000 T10061011 FZRANO
KENV 050751Z AUTO 00000KT 1 3/4SM -SN BR OVC006 M01/M01 A2991 RMK AO2 CIG 005V011 P0000 FZRANO
KENV 050656Z AUTO 00000KT 1 1/4SM -SN BR OVC004 M01/M01 A2991 RMK AO2 CIG 002V007 SLP149 P0000 T10061011 400391050 FZRANO
KENV 050647Z AUTO 00000KT 1 1/4SM -SN BR BKN004 OVC012 00/M01 A2991 RMK AO2 CIG 002V007 P0000 400391050 FZRANO
KENV 050615Z AUTO 00000KT 1SM -SN BR BKN006 OVC010 00/M01 A2991 RMK AO2 CIG 003V008 P0000 FZRANO
KENV 050556Z AUTO 00000KT 3/4SM -SN BR OVC006 00/M01 A2990 RMK AO2 CIG 005V008 SLP148 P0000 60003 T00001006 10017 20000 55001 FZRANO
KENV 050514Z AUTO 00000KT 3/4SM -SN BR BKN006 OVC013 00/M01 A2990 RMK AO2 P0000 FZRANO
KENV 050456Z AUTO 00000KT 3/4SM -SN BR FEW006 OVC013 00/M01 A2990 RMK AO2 SLP148 P0000 T00001006 FZRANO
KENV 050448Z AUTO 00000KT 3/4SM -SN BR FEW008 OVC013 00/M01 A2990 RMK AO2 P0000 FZRANO
KENV 050425Z AUTO 00000KT 3/4SM -SN BR OVC009 00/M01 A2990 RMK AO2 CIG 004V013 P0000 FZRANO
KENV 050356Z AUTO 00000KT 3/4SM -SN BR OVC004 00/M01 A2991 RMK AO2 SLP155 P0000 T00001011 FZRANO
KENV 050341Z AUTO 00000KT 3/4SM -SN BR BKN004 OVC010 00/M01 A2991 RMK AO2 CIG 003V008 P0000 FZRANO
KENV 050314Z AUTO 00000KT 1SM -SN BR SCT007 OVC012 00/M01 A2991 RMK AO2 P0000 FZRANO
KENV 050256Z AUTO 00000KT 1SM -SN BR BKN007 BKN011 OVC016 00/M01 A2992 RMK AO2 SLP160 P0000 60003 T00001011 56007 FZRANO
KENV 050248Z AUTO 00000KT 1SM -SN BR SCT007 OVC014 00/M01 A2992 RMK AO2 P0000 FZRANO
KENV 050235Z AUTO 16003KT 1SM -SN BR BKN009 OVC017 00/M01 A2991 RMK AO2 CIG 008V015 P0000 FZRANO
KENV 050230Z AUTO 00000KT 1SM -SN BR BKN011 BKN017 OVC027 00/M01 A2991 RMK AO2 P0000 FZRANO
KENV 050222Z AUTO 00000KT 1 1/4SM -SN BR BKN009 BKN014 OVC029 00/M01 A2991 RMK AO2 CIG 008V012 P0000 FZRANO
KENV 050218Z AUTO 00000KT 1SM -SN BR SCT009 BKN014 OVC029 00/M01 A2991 RMK AO2 P0000 FZRANO
KENV 050203Z AUTO 19003KT 1 3/4SM -SN BR SCT014 OVC029 01/M01 A2992 RMK AO2 P0000 FZRANO
KENV 050156Z AUTO 17004KT 2 1/2SM -SN BR FEW014 BKN031 OVC041 01/M01 A2992 RMK AO2 RAE24UPB24E52SNB52 SLP161 P0002 T00061006 FZRANO
KENV 050056Z AUTO 03003KT 8SM RA OVC043 01/M01 A2994 RMK AO2 RAB15 SLP167 P0001 T00111011 FZRANO
KENV 042356Z AUTO 00000KT 10SM BKN075 OVC090 02/M02 A2996 RMK AO2 SLP174 T00171017 10028 20006 56012 FZRANO
KENV 042256Z AUTO 00000KT 10SM BKN100 02/M02 A2997 RMK AO2 SLP178 T00171017 FZRANO
KENV 042156Z AUTO 00000KT 10SM CLR 02/M02 A2998 RMK AO2 SLP177 T00171017 FZRANO
KENV 042056Z AUTO 00000KT 10SM BKN110 02/M02 A3000 RMK AO2 SLP186 T00221017 58029 FZRANO
KENV 041956Z AUTO 00000KT 10SM OVC110 02/M02 A3003 RMK AO2 SLP197 T00171017 FZRANO
KENV 041856Z AUTO 13003KT 10SM OVC110 01/M02 A3007 RMK AO2 SLP209 T00111017 FZRANO
KENV 041756Z AUTO 00000KT 10SM BKN110 01/M02 A3010 RMK AO2 SLP219 T00061022 10039 21050 56007 FZRANO
KENV 041656Z AUTO 07003KT 8SM CLR 00/M01 A3010 RMK AO2 SLP221 T00001011 FZRANO
KENV 041556Z AUTO 05003KT 6SM BR BKN120 M03/M04 A3010 RMK AO2 SLP225 T10281039 FZRANO
KENV 041456Z AUTO 00000KT 7SM FEW120 M04/M04 A3012 RMK AO2 SLP234 T10391044 56003 FZRANO
KENV 041356Z AUTO 00000KT 10SM CLR M04/M06 A3012 RMK AO2 SLP234 T10441056 FZRANO